Time;durP1;ratioP1;P1;durP2;ratioP2;P2;SDS_P1;SDS_P2;PMS_P1;PMS_P2;Temp;Humidity;BMP_temperature;BMP_pressure;BME280_temperature;BME280_humidity;BME280_pressure;Samples;Min_cycle;Max_cycle;Signal;HPM_P1;HPM_P2
2022/11/20 00:01:16;;;;;;;0.30;0.30;;;;;;;17.71;36.99;100970.88;4735844;30;20076;-87
2022/11/20 00:03:42;;;;;;;0.30;0.30;;;;;;;17.75;37.15;100962.13;4721596;30;20035;-87
2022/11/20 00:06:09;;;;;;;0.40;0.30;;;;;;;17.73;37.23;100961.50;4735628;30;20364;-87
2022/11/20 00:08:35;;;;;;;0.38;0.38;;;;;;;17.76;37.00;100966.47;4735721;30;20102;-87
2022/11/20 00:11:05;;;;;;;0.68;0.40;;;;;;;17.73;37.05;100961.50;4750583;30;20039;-87
2022/11/20 00:13:31;;;;;;;0.30;0.30;;;;;;;17.73;37.10;100956.09;4736144;30;20032;-87
2022/11/20 00:15:58;;;;;;;0.47;0.45;;;;;;;17.73;37.08;100950.69;4735935;30;20036;-87
2022/11/20 00:18:24;;;;;;;0.50;0.47;;;;;;;17.73;37.07;100944.44;4735823;30;20162;-87
2022/11/20 00:20:49;;;;;;;0.40;0.40;;;;;;;17.73;37.04;100948.00;4751470;30;20036;-87
2022/11/20 00:23:15;;;;;;;0.30;0.30;;;;;;;17.74;37.07;100941.53;4750555;30;20127;-86
2022/11/20 00:25:41;;;;;;;0.40;0.40;;;;;;;17.76;37.06;100946.72;4735669;30;20064;-86
2022/11/20 00:28:06;;;;;;;0.30;0.30;;;;;;;17.73;37.21;100939.88;4750497;30;20106;-87
2022/11/20 00:30:32;;;;;;;1.60;0.40;;;;;;;17.77;37.04;100927.56;4735596;30;20029;-87
2022/11/20 00:32:58;;;;;;;0.30;0.30;;;;;;;17.75;37.07;100932.38;4722985;30;20058;-87
2022/11/20 00:35:23;;;;;;;0.30;0.30;;;;;;;17.76;37.00;100923.19;4738630;30;20066;-87
2022/11/20 00:37:49;;;;;;;0.50;0.40;;;;;;;17.74;37.07;100919.91;4753124;30;20048;-87
2022/11/20 00:40:14;;;;;;;0.30;0.30;;;;;;;17.77;37.17;100924.06;4738527;30;20042;-87
2022/11/20 00:42:40;;;;;;;0.43;0.40;;;;;;;17.75;37.06;100921.56;4738355;30;20036;-87
2022/11/20 00:45:06;;;;;;;0.40;0.40;;;;;;;17.75;36.97;100920.75;4752857;30;20036;-87
2022/11/20 00:47:32;;;;;;;0.40;0.40;;;;;;;17.73;37.04;100912.84;4768621;30;20035;-87
2022/11/20 00:49:58;;;;;;;0.40;0.40;;;;;;;17.76;37.07;100922.38;4752764;30;20373;-87
2022/11/20 00:52:23;;;;;;;0.55;0.47;;;;;;;17.76;36.84;100906.97;4738246;30;20074;-87
2022/11/20 00:54:49;;;;;;;0.50;0.43;;;;;;;17.78;37.02;100909.47;4737296;30;20078;-87
2022/11/20 00:57:14;;;;;;;0.32;0.32;;;;;;;17.75;36.99;100899.94;4738069;30;20032;-87
2022/11/20 00:59:43;;;;;;;0.30;0.30;;;;;;;17.77;37.03;100907.81;4752504;30;20036;-87
2022/11/20 01:02:08;;;;;;;0.40;0.40;;;;;;;17.76;37.06;100898.88;4737595;30;20043;-87
2022/11/20 01:04:34;;;;;;;1.75;0.30;;;;;;;17.76;37.13;100901.56;4752561;30;20113;-87
2022/11/20 01:06:59;;;;;;;1.75;0.40;;;;;;;17.79;37.17;100897.63;4738212;30;20032;-87
2022/11/20 01:09:25;;;;;;;0.30;0.30;;;;;;;17.76;36.99;100896.16;4738046;30;20060;-87
2022/11/20 01:11:51;;;;;;;0.40;0.40;;;;;;;17.77;37.05;100887.03;4738050;30;20036;-87
2022/11/20 01:14:18;;;;;;;0.30;0.30;;;;;;;17.76;36.79;100890.75;4738053;30;20083;-87
2022/11/20 01:16:49;;;;;;;0.50;0.43;;;;;;;17.77;37.09;100892.44;4738214;30;20040;-87
2022/11/20 01:19:16;;;;;;;0.30;0.30;;;;;;;17.80;37.17;100889.28;4738272;30;20465;-87
2022/11/20 01:21:43;;;;;;;0.50;0.50;;;;;;;17.81;36.93;100887.41;4723407;30;20074;-87
2022/11/20 01:24:12;;;;;;;0.40;0.40;;;;;;;17.82;37.16;100879.06;4738146;30;20070;-87
2022/11/20 01:26:38;;;;;;;0.50;0.50;;;;;;;17.79;37.13;100876.81;4738059;30;20116;-87
2022/11/20 01:29:04;;;;;;;0.47;0.40;;;;;;;17.81;37.29;100877.41;4752786;30;20024;-87
2022/11/20 01:31:32;;;;;;;0.47;0.40;;;;;;;17.81;37.18;100882.81;4738038;30;20028;-87
2022/11/20 01:33:59;;;;;;;0.30;0.30;;;;;;;17.80;37.09;100874.94;4734873;30;20598;-87
2022/11/20 01:36:29;;;;;;;0.30;0.28;;;;;;;17.80;37.16;100867.66;4735397;30;20084;-87
2022/11/20 01:38:59;;;;;;;0.38;0.32;;;;;;;17.79;37.20;100866.00;4735501;30;20082;-87
2022/11/20 01:44:11;;;;;;;0.98;0.60;;;;;;;17.83;37.29;100867.22;4749486;30;20043;-87
2022/11/20 01:46:37;;;;;;;0.30;0.30;;;;;;;17.80;37.21;100870.34;4734747;30;20039;-87
2022/11/20 01:49:03;;;;;;;0.30;0.30;;;;;;;17.80;37.16;100870.34;4735117;30;20036;-87
2022/11/20 01:51:50;;;;;;;0.30;0.30;;;;;;;17.82;37.15;100865.56;4749444;30;20032;-87
2022/11/20 01:54:22;;;;;;;0.50;0.47;;;;;;;17.82;37.21;100862.84;4735032;30;20400;-87
2022/11/20 01:56:50;;;;;;;0.40;0.40;;;;;;;17.81;37.29;100861.19;4735283;30;20447;-87
2022/11/20 01:59:17;;;;;;;0.32;0.32;;;;;;;17.82;37.21;100854.72;4735234;30;20051;-87
2022/11/20 02:01:43;;;;;;;0.60;0.40;;;;;;;17.81;37.26;100847.66;4749371;30;20086;-87
2022/11/20 02:04:08;;;;;;;0.40;0.40;;;;;;;17.86;37.15;100851.59;4734534;30;20048;-87
2022/11/20 02:07:14;;;;;;;0.30;0.30;;;;;;;17.87;37.11;100847.84;4736600;30;20032;-86
2022/11/20 02:09:40;;;;;;;0.40;0.40;;;;;;;17.83;37.03;100848.28;4704684;30;20048;-87
2022/11/20 02:13:42;;;;;;;0.90;0.50;;;;;;;17.81;36.95;100850.38;4704972;30;20036;-86
2022/11/20 02:14:51;;;;;;;0.55;0.50;;;;;;;17.80;37.12;100837.91;4738702;30;20098;-87
2022/11/20 02:17:19;;;;;;;0.45;0.45;;;;;;;17.81;36.96;100833.31;4752497;30;20171;-88
2022/11/20 02:19:45;;;;;;;0.57;0.40;;;;;;;17.83;37.08;100834.78;4738061;30;20471;-87
2022/11/20 02:22:28;;;;;;;0.60;0.50;;;;;;;17.82;36.97;100837.69;4737503;30;20090;-87
2022/11/20 02:24:54;;;;;;;0.25;0.25;;;;;;;17.82;37.08;100848.50;4738381;30;20028;-87
2022/11/20 02:27:19;;;;;;;0.50;0.50;;;;;;;17.86;37.00;100848.88;4737455;30;20117;-87
2022/11/20 02:29:53;;;;;;;1.65;0.40;;;;;;;17.86;37.06;100847.03;4737556;30;20392;-87
2022/11/20 02:32:29;;;;;;;0.50;0.47;;;;;;;17.84;36.99;100849.94;4738106;30;20474;-87
2022/11/20 02:34:55;;;;;;;0.57;0.40;;;;;;;17.81;37.17;100836.84;4752009;30;20048;-87
2022/11/20 02:37:21;;;;;;;0.70;0.50;;;;;;;17.82;36.95;100835.00;4752006;30;20082;-87
2022/11/20 02:39:48;;;;;;;0.43;0.30;;;;;;;17.84;36.97;100833.69;4737241;30;20517;-87
2022/11/20 02:42:14;;;;;;;1.13;0.60;;;;;;;17.84;37.02;100832.88;4751918;30;20070;-87
2022/11/20 02:44:39;;;;;;;1.90;0.47;;;;;;;17.83;37.06;100825.81;4737150;30;20139;-87
2022/11/20 02:47:05;;;;;;;0.52;0.40;;;;;;;17.82;37.08;100825.00;4751942;30;20086;-87
2022/11/20 02:49:31;;;;;;;0.70;0.52;;;;;;;17.88;37.12;100826.00;4737352;30;20037;-87
2022/11/20 02:51:56;;;;;;;0.45;0.40;;;;;;;17.89;36.89;100816.03;4737368;30;20039;-87
2022/11/20 02:54:22;;;;;;;0.55;0.52;;;;;;;17.87;37.05;100821.66;4722417;30;20040;-87
2022/11/20 02:56:48;;;;;;;0.45;0.45;;;;;;;17.86;36.99;100816.44;4736905;30;20039;-87
2022/11/20 02:59:14;;;;;;;0.50;0.50;;;;;;;17.86;36.84;100809.19;4737029;30;20572;-87
2022/11/20 03:01:39;;;;;;;0.40;0.40;;;;;;;17.87;37.06;100810.00;4737057;30;20043;-87
2022/11/20 03:04:08;;;;;;;0.57;0.40;;;;;;;17.86;37.09;100801.06;4736879;30;20111;-87
2022/11/20 03:06:33;;;;;;;0.40;0.40;;;;;;;17.88;37.04;100800.84;4736699;30;20461;-87
2022/11/20 03:08:59;;;;;;;0.38;0.32;;;;;;;17.83;37.36;100794.22;4736688;30;20042;-87
2022/11/20 03:11:25;;;;;;;1.10;0.55;;;;;;;17.88;37.12;100800.84;4736935;30;20572;-87
2022/11/20 03:13:50;;;;;;;0.40;0.40;;;;;;;17.87;37.08;100793.78;4736769;30;20039;-87
2022/11/20 03:16:18;;;;;;;0.50;0.50;;;;;;;17.89;36.92;100797.09;4752349;30;20451;-87
2022/11/20 03:18:44;;;;;;;0.50;0.50;;;;;;;17.84;37.12;100795.84;4750447;30;20065;-87
2022/11/20 03:21:10;;;;;;;0.65;0.50;;;;;;;17.87;37.03;100783.81;4736335;30;20036;-87
2022/11/20 03:23:36;;;;;;;0.40;0.40;;;;;;;17.89;37.04;100783.59;4736519;30;20032;-87
2022/11/20 03:26:28;;;;;;;0.43;0.40;;;;;;;17.89;37.15;100781.69;4736429;30;20050;-87
2022/11/20 03:28:57;;;;;;;0.40;0.40;;;;;;;17.89;37.17;100781.69;4751308;30;20044;-87
2022/11/20 03:31:25;;;;;;;0.40;0.40;;;;;;;17.89;36.91;100776.28;4736822;30;20028;-87
2022/11/20 03:33:51;;;;;;;0.63;0.50;;;;;;;17.90;37.14;100772.53;4751095;30;20048;-87
2022/11/20 03:36:17;;;;;;;0.30;0.30;;;;;;;17.90;37.14;100782.50;4736338;30;20032;-87
2022/11/20 03:38:43;;;;;;;0.57;0.50;;;;;;;17.87;37.20;100769.44;4736505;30;20044;-87
2022/11/20 03:41:10;;;;;;;0.55;0.50;;;;;;;17.89;37.15;100764.66;4736437;30;20382;-87
2022/11/20 03:43:36;;;;;;;0.40;0.40;;;;;;;17.89;37.28;100765.47;4736307;30;20028;-86
2022/11/20 03:46:02;;;;;;;0.52;0.50;;;;;;;17.92;37.27;100769.59;4736199;30;20110;-87
2022/11/20 03:48:30;;;;;;;0.30;0.30;;;;;;;17.90;37.25;100766.28;4736217;30;20036;-87
2022/11/20 03:51:15;;;;;;;1.33;0.38;;;;;;;17.92;37.09;100773.13;4736256;30;20032;-87
2022/11/20 03:53:42;;;;;;;0.73;0.50;;;;;;;17.87;37.13;100761.31;4750981;30;20059;-87
2022/11/20 03:56:08;;;;;;;0.40;0.40;;;;;;;17.90;37.20;100760.88;4750542;30;20063;-87
2022/11/20 03:58:39;;;;;;;0.60;0.50;;;;;;;17.88;37.29;100763.00;4735841;30;20036;-87
2022/11/20 04:01:16;;;;;;;0.60;0.47;;;;;;;17.87;37.28;100758.63;4736159;30;20036;-86
2022/11/20 04:03:42;;;;;;;0.68;0.60;;;;;;;17.91;37.29;100768.78;4735542;30;20036;-87
2022/11/20 04:06:16;;;;;;;0.40;0.40;;;;;;;17.90;37.31;100756.31;4735827;30;20031;-87
2022/11/20 04:08:41;;;;;;;0.40;0.40;;;;;;;17.91;37.33;100757.94;4736241;30;20024;-87
2022/11/20 04:11:13;;;;;;;1.27;0.70;;;;;;;17.89;37.40;100753.84;4736055;30;20139;-87
2022/11/20 04:13:39;;;;;;;2.90;0.50;;;;;;;17.91;37.31;100754.44;4750474;30;20036;-87
2022/11/20 04:16:11;;;;;;;0.80;0.40;;;;;;;17.91;37.29;100747.13;4735708;30;20032;-87
2022/11/20 04:18:37;;;;;;;3.70;0.40;;;;;;;17.91;37.32;100747.13;4735892;30;20041;-87
2022/11/20 04:21:03;;;;;;;0.55;0.43;;;;;;;17.89;37.27;100738.44;4735657;30;20039;-87
2022/11/20 04:23:28;;;;;;;1.17;0.70;;;;;;;17.91;37.34;100747.13;4735714;30;20033;-87
2022/11/20 04:25:54;;;;;;;1.27;0.50;;;;;;;17.94;37.54;100745.88;4720941;30;20085;-87
2022/11/20 04:28:20;;;;;;;0.40;0.40;;;;;;;17.92;37.34;100748.81;4735266;30;20071;-87
2022/11/20 04:30:45;;;;;;;0.73;0.40;;;;;;;17.93;37.32;100741.50;4720855;30;20385;-87
2022/11/20 04:33:23;;;;;;;0.45;0.40;;;;;;;17.92;37.41;100735.28;4737945;30;20075;-87
2022/11/20 04:35:48;;;;;;;0.80;0.50;;;;;;;17.94;37.38;100740.47;4735570;30;20071;-87
2022/11/20 04:38:14;;;;;;;0.52;0.52;;;;;;;17.94;37.50;100737.75;4750055;30;20047;-87
2022/11/20 04:40:39;;;;;;;0.85;0.50;;;;;;;17.90;37.28;100734.69;4749972;30;20067;-87
2022/11/20 04:43:05;;;;;;;0.47;0.47;;;;;;;17.93;37.30;100736.09;4735537;30;20038;-87
2022/11/20 04:45:30;;;;;;;0.93;0.63;;;;;;;17.95;37.30;100736.69;4735367;30;20499;-87
2022/11/20 04:47:56;;;;;;;0.55;0.40;;;;;;;17.91;37.25;100722.81;4750169;30;20085;-87
2022/11/20 04:50:22;;;;;;;0.98;0.50;;;;;;;17.88;37.35;100720.56;4749832;30;20123;-87
2022/11/20 04:52:47;;;;;;;0.50;0.43;;;;;;;17.91;37.35;100722.81;4749884;30;20522;-87
2022/11/20 04:55:13;;;;;;;0.90;0.50;;;;;;;17.93;37.45;100717.16;4735397;30;20111;-87
2022/11/20 04:57:39;;;;;;;0.47;0.40;;;;;;;17.92;37.34;100718.22;4735627;30;20032;-87
2022/11/20 05:00:08;;;;;;;0.82;0.60;;;;;;;17.94;37.33;100719.66;4749788;30;20028;-87
2022/11/20 05:02:33;;;;;;;0.82;0.60;;;;;;;17.96;37.54;100722.13;4749670;30;20565;-87
2022/11/20 05:04:59;;;;;;;0.57;0.57;;;;;;;17.92;37.43;100721.75;4735208;30;20067;-87
2022/11/20 05:07:25;;;;;;;0.82;0.57;;;;;;;17.95;37.32;100720.47;4735347;30;20079;-87
2022/11/20 05:09:50;;;;;;;0.50;0.50;;;;;;;17.93;37.61;100723.41;4749810;30;20123;-87
2022/11/20 05:12:16;;;;;;;1.52;0.50;;;;;;;17.92;37.43;100723.63;4735209;30;20050;-87
2022/11/20 05:14:41;;;;;;;0.60;0.50;;;;;;;17.94;37.49;100729.66;4749703;30;20032;-87
2022/11/20 05:17:10;;;;;;;1.52;0.50;;;;;;;17.95;37.37;100731.28;4735181;30;20040;-87
2022/11/20 05:19:36;;;;;;;0.63;0.60;;;;;;;17.91;37.40;100719.28;4749700;30;20032;-87
2022/11/20 05:22:01;;;;;;;1.10;0.50;;;;;;;17.95;37.37;100725.88;4749339;30;20024;-87
2022/11/20 05:24:27;;;;;;;0.90;0.40;;;;;;;17.93;37.48;100711.75;4734947;30;20040;-87
2022/11/20 05:26:53;;;;;;;0.55;0.55;;;;;;;17.87;37.63;100704.56;4720127;30;20489;-87
2022/11/20 05:29:18;;;;;;;0.70;0.50;;;;;;;17.95;37.32;100710.47;4749765;30;20111;-87
2022/11/20 05:31:44;;;;;;;0.40;0.40;;;;;;;17.92;37.56;100696.59;4735004;30;20044;-87
2022/11/20 05:34:10;;;;;;;1.23;0.50;;;;;;;17.96;37.56;100700.50;4749045;30;20143;-87
2022/11/20 05:36:35;;;;;;;1.30;0.65;;;;;;;17.95;37.56;100698.84;4734726;30;20489;-87
2022/11/20 05:39:01;;;;;;;0.47;0.40;;;;;;;17.97;37.45;100694.00;4734648;30;20047;-87
2022/11/20 05:41:27;;;;;;;0.50;0.50;;;;;;;17.97;37.51;100696.72;4736864;30;20033;-87
2022/11/20 05:43:52;;;;;;;0.50;0.40;;;;;;;17.96;37.56;100695.09;4753007;30;20156;-87
2022/11/20 05:46:19;;;;;;;0.52;0.50;;;;;;;17.98;37.53;100687.56;4752778;30;20515;-87
2022/11/20 05:48:45;;;;;;;2.15;0.70;;;;;;;17.97;37.39;100685.91;4753243;30;20085;-87
2022/11/20 05:51:13;;;;;;;0.60;0.60;;;;;;;17.97;37.54;100684.03;4738215;30;20059;-87
2022/11/20 05:53:39;;;;;;;0.57;0.50;;;;;;;17.97;37.69;100689.44;4738490;30;20111;-87
2022/11/20 05:56:16;;;;;;;1.05;0.63;;;;;;;17.98;37.55;100676.75;4738269;30;20537;-87
2022/11/20 05:58:42;;;;;;;0.60;0.60;;;;;;;17.98;37.50;100682.16;4738483;30;20039;-87
2022/11/20 06:01:10;;;;;;;0.47;0.47;;;;;;;17.96;37.46;100681.56;4738195;30;20118;-87
2022/11/20 06:03:37;;;;;;;0.57;0.50;;;;;;;17.97;37.62;100675.09;4738210;30;20036;-87
2022/11/20 06:06:06;;;;;;;0.88;0.60;;;;;;;17.99;37.59;100673.81;4738219;30;20028;-87
2022/11/20 06:08:32;;;;;;;0.80;0.60;;;;;;;18.01;37.65;100673.59;4738277;30;20485;-87
2022/11/20 06:10:57;;;;;;;0.65;0.60;;;;;;;18.00;37.54;100675.44;4738001;30;20047;-87
2022/11/20 06:13:23;;;;;;;0.77;0.55;;;;;;;17.96;37.52;100668.88;4752678;30;20054;-87
2022/11/20 06:15:52;;;;;;;1.70;0.82;;;;;;;17.98;37.65;100665.94;4752296;30;20028;-87
2022/11/20 06:18:18;;;;;;;0.70;0.50;;;;;;;17.99;37.46;100659.47;4737366;30;20063;-87
2022/11/20 06:20:44;;;;;;;0.80;0.60;;;;;;;17.99;37.54;100654.06;4737497;30;20032;-87
2022/11/20 06:23:10;;;;;;;0.88;0.57;;;;;;;18.00;37.60;100661.13;4737593;30;20109;-87
2022/11/20 06:25:54;;;;;;;1.05;0.63;;;;;;;17.99;37.58;100667.59;4753713;30;20029;-89
2022/11/20 06:28:19;;;;;;;1.13;0.60;;;;;;;17.97;37.53;100666.97;4737623;30;20040;-87
2022/11/20 06:30:45;;;;;;;1.05;0.60;;;;;;;17.97;37.65;100666.97;4737615;30;20395;-87
2022/11/20 06:33:11;;;;;;;0.55;0.55;;;;;;;17.99;37.67;100667.59;4722785;30;20492;-87
2022/11/20 06:35:37;;;;;;;0.93;0.55;;;;;;;18.01;37.80;100673.59;4737556;30;20119;-87
2022/11/20 06:38:02;;;;;;;0.98;0.60;;;;;;;17.97;37.64;100675.94;4751924;30;20039;-87
2022/11/20 06:40:28;;;;;;;1.10;0.60;;;;;;;18.01;37.71;100668.19;4737207;30;20119;-87
2022/11/20 06:42:54;;;;;;;0.60;0.60;;;;;;;17.99;37.65;100667.59;4752197;30;20032;-87
2022/11/20 06:45:20;;;;;;;1.38;0.60;;;;;;;18.00;37.51;100669.22;4737265;30;20150;-87
2022/11/20 06:47:46;;;;;;;0.77;0.60;;;;;;;18.02;37.70;100667.97;4737370;30;20473;-87
2022/11/20 06:50:12;;;;;;;1.55;0.80;;;;;;;18.01;37.63;100668.19;4737204;30;20111;-87
2022/11/20 06:52:38;;;;;;;1.27;0.70;;;;;;;18.01;37.45;100665.47;4750882;30;20036;-87
2022/11/20 06:55:04;;;;;;;0.75;0.60;;;;;;;18.04;37.53;100675.84;4737001;30;20071;-87
2022/11/20 06:57:32;;;;;;;0.95;0.73;;;;;;;18.02;37.72;100669.81;4736955;30;20028;-87
2022/11/20 06:59:58;;;;;;;0.75;0.50;;;;;;;18.02;37.67;100672.53;4737432;30;20051;-87
2022/11/20 07:02:26;;;;;;;0.65;0.65;;;;;;;18.00;37.63;100671.94;4736975;30;20165;-87
2022/11/20 07:04:52;;;;;;;1.08;0.70;;;;;;;18.00;37.80;100664.63;4737207;30;20115;-87
2022/11/20 07:07:17;;;;;;;1.15;0.77;;;;;;;18.02;37.70;100670.66;4737259;30;20093;-87
2022/11/20 07:09:43;;;;;;;0.77;0.60;;;;;;;18.02;37.67;100667.09;4736945;30;20064;-87
2022/11/20 07:12:09;;;;;;;0.75;0.60;;;;;;;18.05;37.63;100669.34;4737101;30;20032;-87
2022/11/20 07:14:35;;;;;;;0.65;0.60;;;;;;;18.01;37.67;100668.19;4752505;30;20455;-87
2022/11/20 07:17:00;;;;;;;0.80;0.70;;;;;;;18.02;37.80;100656.28;4736720;30;20028;-87
2022/11/20 07:19:26;;;;;;;1.17;0.68;;;;;;;18.05;37.87;100672.06;4736847;30;20060;-87
2022/11/20 07:21:52;;;;;;;0.70;0.60;;;;;;;18.04;37.80;100666.88;4722006;30;20181;-87
2022/11/20 07:24:17;;;;;;;0.77;0.63;;;;;;;18.04;37.86;100670.44;4751669;30;20040;-87
2022/11/20 07:26:50;;;;;;;0.70;0.60;;;;;;;18.04;37.76;100664.19;4751503;30;20029;-87
2022/11/20 07:29:16;;;;;;;0.50;0.50;;;;;;;18.02;37.90;100669.81;4737127;30;20496;-87
2022/11/20 07:31:42;;;;;;;1.25;0.60;;;;;;;18.06;38.05;100668.31;4736523;30;20054;-86
2022/11/20 07:34:08;;;;;;;0.95;0.70;;;;;;;18.07;37.84;100669.94;4736247;30;20056;-87
2022/11/20 07:36:34;;;;;;;0.80;0.60;;;;;;;18.06;37.74;100668.31;4736351;30;20550;-87
2022/11/20 07:39:03;;;;;;;0.70;0.70;;;;;;;18.01;37.78;100660.06;4735875;30;20090;-87
2022/11/20 07:41:31;;;;;;;1.13;0.70;;;;;;;18.07;37.71;100661.84;4750694;30;20118;-87
2022/11/20 07:43:57;;;;;;;0.80;0.60;;;;;;;18.06;37.99;100671.03;4736187;30;20028;-87
2022/11/20 07:46:23;;;;;;;0.90;0.63;;;;;;;18.05;37.72;100655.84;4736271;30;20036;-87
2022/11/20 07:48:48;;;;;;;0.85;0.60;;;;;;;18.07;37.84;100667.25;4735932;30;20036;-87
2022/11/20 07:51:14;;;;;;;0.82;0.68;;;;;;;18.06;37.90;100668.31;4735811;30;20040;-87
2022/11/20 07:53:40;;;;;;;0.60;0.60;;;;;;;18.07;38.07;100658.31;4735797;30;20055;-87
2022/11/20 07:56:09;;;;;;;0.60;0.60;;;;;;;18.07;37.87;100667.25;4735721;30;20048;-87
2022/11/20 07:58:34;;;;;;;0.82;0.52;;;;;;;18.07;37.84;100659.13;4721389;30;20106;-87
2022/11/20 08:01:07;;;;;;;0.57;0.57;;;;;;;18.07;37.93;100658.31;4735741;30;20036;-87
2022/11/20 08:03:33;;;;;;;0.90;0.60;;;;;;;18.05;37.87;100653.13;4735890;30;20111;-87
2022/11/20 08:06:00;;;;;;;0.52;0.52;;;;;;;18.07;37.83;100664.53;4750558;30;20024;-87
2022/11/20 08:08:26;;;;;;;0.77;0.77;;;;;;;18.10;38.01;100663.28;4736253;30;20036;-87
2022/11/20 08:10:52;;;;;;;0.88;0.70;;;;;;;18.04;37.95;100670.44;4750512;30;20034;-87
2022/11/20 08:16:01;;;;;;;0.50;0.50;;;;;;;18.04;37.98;100665.03;4738196;30;20522;-87
2022/11/20 08:18:27;;;;;;;0.88;0.68;;;;;;;18.07;37.86;100663.72;4750661;30;20036;-87
2022/11/20 08:20:55;;;;;;;0.90;0.55;;;;;;;18.09;37.90;100669.72;4735851;30;20115;-87
2022/11/20 08:23:22;;;;;;;0.65;0.57;;;;;;;18.11;37.87;100670.31;4720990;30;20036;-87
2022/11/20 08:25:51;;;;;;;0.85;0.65;;;;;;;18.07;37.89;100672.66;4735523;30;20032;-87
2022/11/20 08:28:17;;;;;;;0.93;0.63;;;;;;;18.09;37.95;100683.25;4750161;30;20407;-87
2022/11/20 08:30:42;;;;;;;1.15;0.60;;;;;;;18.07;37.90;100675.34;4720980;30;20032;-87
2022/11/20 08:33:08;;;;;;;0.85;0.70;;;;;;;18.06;38.01;100673.72;4752847;30;20108;-87
2022/11/20 08:35:37;;;;;;;0.98;0.80;;;;;;;18.08;38.00;100673.50;4738345;30;20039;-87
2022/11/20 08:38:07;;;;;;;1.13;0.73;;;;;;;18.06;37.91;100662.91;4752719;30;20020;-87
2022/11/20 08:40:35;;;;;;;0.60;0.60;;;;;;;18.12;37.97;100663.84;4738799;30;20042;-87
2022/11/20 08:43:01;;;;;;;1.33;0.60;;;;;;;18.09;38.11;100667.88;4738851;30;20024;-88
2022/11/20 08:45:29;;;;;;;0.70;0.70;;;;;;;18.11;37.95;100668.44;4752821;30;20044;-87
2022/11/20 08:47:59;;;;;;;0.80;0.70;;;;;;;18.10;38.06;100666.78;4752692;30;20039;-87
2022/11/20 08:50:25;;;;;;;0.65;0.65;;;;;;;18.12;37.83;100671.97;4752602;30;20040;-87
2022/11/20 08:52:51;;;;;;;0.90;0.70;;;;;;;18.12;38.02;100659.25;4752826;30;20497;-87
2022/11/20 08:55:16;;;;;;;0.88;0.60;;;;;;;18.10;37.86;100671.38;4738368;30;20503;-87
2022/11/20 08:57:42;;;;;;;0.82;0.82;;;;;;;18.10;37.85;100666.78;4737932;30;20122;-88
2022/11/20 09:00:08;;;;;;;0.80;0.70;;;;;;;18.12;37.95;100671.97;4738034;30;20075;-87
2022/11/20 09:02:33;;;;;;;1.08;0.75;;;;;;;18.11;38.11;100665.75;4737938;30;20131;-87
2022/11/20 09:04:59;;;;;;;1.02;0.70;;;;;;;18.09;38.06;100661.59;4738286;30;20107;-87
2022/11/20 09:07:25;;;;;;;2.47;0.60;;;;;;;18.12;37.95;100663.84;4752646;30;20039;-87
2022/11/20 09:09:50;;;;;;;1.00;0.80;;;;;;;18.12;38.08;100666.56;4738029;30;20122;-87
2022/11/20 09:12:18;;;;;;;0.80;0.60;;;;;;;18.12;38.10;100666.56;4737651;30;20028;-87
2022/11/20 09:14:44;;;;;;;0.85;0.65;;;;;;;18.13;37.79;100662.81;4738296;30;20053;-87
2022/11/20 09:17:13;;;;;;;1.23;0.75;;;;;;;18.12;37.99;100661.97;4741110;30;20035;-87
2022/11/20 09:19:40;;;;;;;0.93;0.60;;;;;;;18.13;37.94;100652.81;4742257;30;20413;-87
2022/11/20 09:22:08;;;;;;;0.85;0.70;;;;;;;18.12;38.03;100643.03;4741581;30;20048;-88
2022/11/20 09:24:33;;;;;;;0.77;0.60;;;;;;;18.13;38.09;100647.41;4756268;30;20495;-87
2022/11/20 09:27:04;;;;;;;0.50;0.50;;;;;;;18.14;38.07;100649.06;4756000;30;20124;-87
2022/11/20 09:29:29;;;;;;;0.82;0.60;;;;;;;18.14;38.02;100640.94;4741437;30;20028;-87
2022/11/20 09:31:55;;;;;;;0.85;0.70;;;;;;;18.13;37.96;100650.09;4756029;30;20053;-87
2022/11/20 09:34:20;;;;;;;1.13;0.82;;;;;;;18.14;38.07;100645.50;4771862;30;20542;-87
2022/11/20 09:36:46;;;;;;;0.93;0.80;;;;;;;18.14;38.09;100643.66;4741455;30;20036;-87
2022/11/20 09:39:12;;;;;;;0.70;0.70;;;;;;;18.14;37.88;100645.50;4741356;30;20027;-87
2022/11/20 09:41:58;;;;;;;0.60;0.60;;;;;;;18.15;37.94;100648.00;4741522;30;20044;-88
2022/11/20 09:44:30;;;;;;;0.60;0.60;;;;;;;18.16;38.08;100654.22;4755606;30;20129;-88
2022/11/20 09:47:06;;;;;;;0.68;0.60;;;;;;;18.14;38.15;100648.22;4771991;30;20103;-87
2022/11/20 09:49:47;;;;;;;1.00;0.60;;;;;;;18.15;38.01;100645.28;4756398;30;20028;-87
2022/11/20 09:52:21;;;;;;;0.70;0.60;;;;;;;18.14;38.00;100640.09;4771602;30;20039;-87
2022/11/20 09:54:46;;;;;;;0.70;0.70;;;;;;;18.13;38.24;100639.28;4741750;30;20032;-87
2022/11/20 09:57:23;;;;;;;0.77;0.75;;;;;;;18.16;38.06;100646.94;4741037;30;20063;-87
2022/11/20 09:59:51;;;;;;;0.90;0.70;;;;;;;18.16;38.10;100641.53;4741934;30;20500;-87
2022/11/20 10:02:24;;;;;;;1.20;0.70;;;;;;;18.17;38.11;100651.28;4740828;30;20058;-87
2022/11/20 10:05:11;;;;;;;0.50;0.50;;;;;;;18.16;38.09;100646.94;4756689;30;20024;-87
2022/11/20 10:07:47;;;;;;;1.17;0.90;;;;;;;18.18;38.02;100644.00;4758084;30;20163;-87
2022/11/20 10:10:45;;;;;;;2.00;0.88;;;;;;;18.17;38.00;100640.47;4755472;30;20082;-87
2022/11/20 10:13:25;;;;;;;1.33;0.70;;;;;;;18.17;38.10;100645.88;4743021;30;20028;-87
2022/11/20 10:16:02;;;;;;;0.60;0.60;;;;;;;18.17;38.16;100648.56;4755089;30;20120;-87
2022/11/20 10:18:50;;;;;;;1.40;0.70;;;;;;;18.18;38.20;100647.53;4755060;30;20505;-87
2022/11/20 10:21:33;;;;;;;0.80;0.60;;;;;;;18.19;38.15;100641.03;4770840;30;20047;-87
2022/11/20 10:24:23;;;;;;;0.47;0.43;;;;;;;18.18;38.01;100631.31;4771318;30;20454;-87
2022/11/20 10:27:03;;;;;;;0.75;0.75;;;;;;;18.18;38.23;100628.59;4771228;30;20027;-87
2022/11/20 10:29:36;;;;;;;0.90;0.70;;;;;;;18.17;38.13;100635.06;4741092;30;20095;-87
2022/11/20 10:32:14;;;;;;;0.75;0.70;;;;;;;18.19;38.05;100635.63;4740728;30;20032;-87
2022/11/20 10:34:47;;;;;;;0.93;0.70;;;;;;;18.20;38.13;100628.38;4738741;30;20048;-87
2022/11/20 10:37:32;;;;;;;0.50;0.50;;;;;;;18.18;38.13;100628.59;4752172;30;20105;-87
2022/11/20 10:40:20;;;;;;;0.77;0.60;;;;;;;18.22;38.14;100625.44;4739400;30;20040;-87
2022/11/20 10:43:11;;;;;;;0.90;0.70;;;;;;;18.20;38.11;100634.59;4752807;30;20036;-87
2022/11/20 10:45:51;;;;;;;0.70;0.70;;;;;;;18.18;38.16;100623.19;4752105;30;20125;-87
2022/11/20 10:48:20;;;;;;;1.52;0.50;;;;;;;18.19;38.12;100630.22;4738149;30;20032;-87
2022/11/20 10:51:10;;;;;;;1.25;0.70;;;;;;;18.20;38.27;100631.88;4753235;30;20028;-87
2022/11/20 10:53:53;;;;;;;0.70;0.68;;;;;;;18.19;38.23;100634.81;4752228;30;20032;-86
2022/11/20 10:56:50;;;;;;;1.33;0.63;;;;;;;18.20;38.29;100631.88;4751662;30;20043;-87
2022/11/20 10:59:25;;;;;;;1.05;0.85;;;;;;;18.23;38.36;100637.88;4750960;30;20048;-87
2022/11/20 11:01:50;;;;;;;0.50;0.50;;;;;;;18.20;38.30;100633.78;4752615;30;20068;-86
2022/11/20 11:04:28;;;;;;;0.60;0.60;;;;;;;18.24;38.25;100631.44;4751764;30;20119;-87
2022/11/20 11:06:56;;;;;;;0.88;0.70;;;;;;;18.23;38.20;100625.22;4751740;30;20036;-87
2022/11/20 11:09:34;;;;;;;0.88;0.60;;;;;;;18.25;38.20;100633.06;4737109;30;20074;-87
2022/11/20 11:12:00;;;;;;;0.50;0.50;;;;;;;18.23;38.27;100630.63;4737792;30;20465;-87
2022/11/20 11:15:00;;;;;;;0.50;0.50;;;;;;;18.23;38.15;100629.78;4751782;30;20058;-87
2022/11/20 11:17:27;;;;;;;1.33;0.60;;;;;;;18.26;38.29;100637.44;4751609;30;20028;-87
2022/11/20 11:20:08;;;;;;;0.70;0.60;;;;;;;18.25;38.35;100628.50;4751370;30;20119;-87
2022/11/20 11:22:35;;;;;;;0.60;0.60;;;;;;;18.26;38.18;100635.53;4737759;30;20042;-87
2022/11/20 11:25:03;;;;;;;0.65;0.60;;;;;;;18.25;38.22;100638.47;4736572;30;20460;-87
2022/11/20 11:27:35;;;;;;;0.70;0.70;;;;;;;18.26;38.10;100640.94;4736452;30;20029;-87
2022/11/20 11:30:14;;;;;;;0.65;0.60;;;;;;;18.24;38.34;100647.66;4736587;30;20036;-87
2022/11/20 11:32:39;;;;;;;0.55;0.55;;;;;;;18.25;38.19;100636.63;4738609;30;20113;-87
2022/11/20 11:35:06;;;;;;;0.50;0.50;;;;;;;18.24;38.13;100639.53;4739340;30;20472;-87
2022/11/20 11:37:36;;;;;;;0.65;0.50;;;;;;;18.21;38.13;100638.13;4739638;30;20137;-87